Time;durP1;ratioP1;P1;durP2;ratioP2;P2;SDS_P1;SDS_P2;PMS_P1;PMS_P2;Temp;Humidity;BMP_temperature;BMP_pressure;BME280_temperature;BME280_humidity;BME280_pressure;Samples;Min_cycle;Max_cycle;Signal;HPM_P1;HPM_P2
2023/03/26 00:00:42;;;;;;;44.33;4.53;;;;;;;6.00;100.00;100612.09;4917994;29;20473;-89
2023/03/26 00:03:10;;;;;;;48.72;5.07;;;;;;;5.99;100.00;100620.31;4919338;29;20476;-88
2023/03/26 00:05:35;;;;;;;53.72;4.70;;;;;;;5.93;100.00;100616.72;4902614;29;20033;-88
2023/03/26 00:08:01;;;;;;;48.57;4.93;;;;;;;5.85;100.00;100619.72;4937381;29;20092;-88
2023/03/26 00:10:27;;;;;;;59.55;5.03;;;;;;;5.82;100.00;100625.50;4927687;29;20037;-89
2023/03/26 00:12:52;;;;;;;53.93;6.17;;;;;;;5.75;100.00;100609.66;4929295;29;20039;-89
2023/03/26 00:15:17;;;;;;;46.65;4.32;;;;;;;5.77;100.00;100618.22;4938410;29;20095;-88
2023/03/26 00:17:45;;;;;;;45.77;4.53;;;;;;;5.73;100.00;100617.88;4928017;29;20400;-89
2023/03/26 00:20:11;;;;;;;53.78;5.00;;;;;;;5.66;100.00;100614.50;4918698;29;20515;-89
2023/03/26 00:22:37;;;;;;;41.92;4.55;;;;;;;5.66;100.00;100627.00;4918745;29;20034;-89
2023/03/26 00:25:05;;;;;;;65.10;5.10;;;;;;;5.58;100.00;100607.69;4919316;29;20032;-88
2023/03/26 00:27:31;;;;;;;54.50;4.27;;;;;;;5.56;100.00;100606.31;4917466;29;20284;-89
2023/03/26 00:29:58;;;;;;;50.47;4.15;;;;;;;5.55;100.00;100615.31;4917234;29;20496;-89
2023/03/26 00:32:26;;;;;;;41.40;4.13;;;;;;;5.42;100.00;100597.72;4917876;29;20032;-89
2023/03/26 00:34:53;;;;;;;38.20;4.00;;;;;;;5.35;100.00;100589.03;4900094;29;20568;-88
2023/03/26 00:37:19;;;;;;;54.50;4.00;;;;;;;5.34;100.00;100593.56;4917132;29;20056;-89
2023/03/26 00:39:47;;;;;;;57.60;5.23;;;;;;;5.43;100.00;100586.06;4916603;29;20457;-89
2023/03/26 00:42:14;;;;;;;45.75;5.25;;;;;;;5.40;100.00;100597.13;4916701;29;20051;-89
2023/03/26 00:44:41;;;;;;;62.88;4.78;;;;;;;5.37;100.00;100587.78;4917182;29;20035;-89
2023/03/26 00:47:06;;;;;;;54.67;5.20;;;;;;;5.33;100.00;100591.94;4916981;29;20028;-89
2023/03/26 00:49:33;;;;;;;49.67;5.33;;;;;;;5.40;100.00;100591.81;4916275;29;20503;-89
2023/03/26 00:51:58;;;;;;;50.90;4.20;;;;;;;5.38;100.00;100591.25;4917490;29;20051;-89
2023/03/26 00:54:24;;;;;;;60.87;5.30;;;;;;;5.35;100.00;100592.53;4917018;29;20024;-89
2023/03/26 00:56:49;;;;;;;47.90;4.30;;;;;;;5.12;100.00;100556.88;4916730;29;20040;-89
2023/03/26 00:59:15;;;;;;;48.50;4.00;;;;;;;5.19;100.00;100575.38;4899096;29;20024;-89
2023/03/26 01:01:41;;;;;;;44.97;3.88;;;;;;;5.21;100.00;100575.97;4899585;29;20035;-89
2023/03/26 01:04:30;;;;;;;46.63;4.07;;;;;;;5.11;100.00;100565.91;4916494;29;20512;-89
2023/03/26 01:07:00;;;;;;;49.35;4.97;;;;;;;5.26;100.00;100569.97;4917248;29;20114;-89
2023/03/26 01:09:32;;;;;;;59.42;4.30;;;;;;;5.24;100.00;100559.56;4917541;29;20039;-88
2023/03/26 01:12:00;;;;;;;45.37;4.30;;;;;;;5.20;100.00;100552.28;4917775;29;20028;-89
2023/03/26 01:14:27;;;;;;;54.13;4.53;;;;;;;5.12;100.00;100534.81;4918052;29;20111;-88
2023/03/26 01:17:05;;;;;;;43.72;4.28;;;;;;;5.12;100.00;100548.09;4918703;29;20054;-89
2023/03/26 01:19:55;;;;;;;48.10;3.72;;;;;;;5.10;100.00;100540.38;4919478;29;20062;-89
2023/03/26 01:22:25;;;;;;;52.83;3.83;;;;;;;5.07;100.00;100538.16;4921308;29;20051;-89
2023/03/26 01:24:55;;;;;;;50.75;3.97;;;;;;;4.98;100.00;100529.72;4921928;29;20028;-89
2023/03/26 01:27:43;;;;;;;37.33;3.47;;;;;;;4.98;100.00;100529.72;4922435;29;20036;-88
2023/03/26 01:30:37;;;;;;;41.50;3.30;;;;;;;4.94;100.00;100522.44;4923255;29;20547;-88
2023/03/26 01:33:15;;;;;;;41.43;3.73;;;;;;;4.89;100.00;100520.47;4928729;29;20280;-89
2023/03/26 01:36:06;;;;;;;53.00;4.53;;;;;;;4.89;100.00;100515.16;4927260;29;20024;-89
2023/03/26 01:38:45;;;;;;;44.08;4.13;;;;;;;4.83;100.00;100497.47;4927328;29;20044;-89
2023/03/26 01:41:32;;;;;;;43.03;3.53;;;;;;;4.82;100.00;100502.00;4928946;29;20044;-89
2023/03/26 01:44:20;;;;;;;34.42;3.00;;;;;;;4.82;100.00;100499.34;4917058;29;20036;-89
2023/03/26 01:46:47;;;;;;;50.80;4.75;;;;;;;4.78;100.00;100500.81;4916528;29;20028;-89
2023/03/26 01:49:12;;;;;;;56.17;4.47;;;;;;;4.82;100.00;100498.50;4916170;29;20036;-89
2023/03/26 01:51:40;;;;;;;43.20;4.17;;;;;;;4.79;100.00;100498.97;4916262;29;20028;-89
2023/03/26 01:54:15;;;;;;;37.70;3.58;;;;;;;4.81;100.00;100505.69;4915845;29;20032;-89
2023/03/26 01:57:00;;;;;;;48.57;3.53;;;;;;;4.77;100.00;100498.38;4916104;29;20633;-89
2023/03/26 01:59:34;;;;;;;46.33;4.00;;;;;;;4.75;100.00;100500.47;4916159;29;20280;-89
2023/03/26 02:02:09;;;;;;;37.65;3.65;;;;;;;4.71;100.00;100492.13;4916552;29;20091;-88
2023/03/26 02:04:45;;;;;;;39.83;3.40;;;;;;;4.72;100.00;100490.31;4916520;29;20028;-88
2023/03/26 02:07:20;;;;;;;37.92;2.63;;;;;;;4.68;100.00;100485.44;4899784;29;20496;-89
2023/03/26 02:09:49;;;;;;;46.25;3.90;;;;;;;4.59;100.00;100470.84;4916035;29;20476;-89
2023/03/26 02:12:16;;;;;;;45.83;5.18;;;;;;;4.69;100.00;100480.94;4919658;29;20067;-89
2023/03/26 02:14:43;;;;;;;45.20;7.50;;;;;;;4.68;100.00;100469.50;4907877;29;20032;-89
2023/03/26 02:17:10;;;;;;;60.17;12.03;;;;;;;4.72;100.00;100469.06;4928130;29;20088;-88
2023/03/26 02:19:41;;;;;;;41.20;8.37;;;;;;;4.70;100.00;100459.47;4932661;29;20291;-89
2023/03/26 02:22:14;;;;;;;48.92;7.80;;;;;;;4.72;100.00;100458.44;4935627;29;20008;-89
2023/03/26 02:24:41;;;;;;;50.65;5.40;;;;;;;4.73;100.00;100454.75;4915340;29;20012;-89
2023/03/26 02:27:07;;;;;;;36.63;4.32;;;;;;;4.75;100.00;100450.84;4926437;29;20016;-89
2023/03/26 02:29:36;;;;;;;44.20;4.05;;;;;;;4.81;100.00;100446.44;4916610;29;20582;-89
2023/03/26 02:32:07;;;;;;;61.40;5.07;;;;;;;4.85;100.00;100448.41;4916778;29;20076;-89
2023/03/26 02:34:33;;;;;;;34.25;4.45;;;;;;;4.86;100.00;100449.22;4916903;29;20051;-89
2023/03/26 02:36:58;;;;;;;35.45;4.20;;;;;;;4.85;100.00;100442.31;4916429;29;20051;-89
2023/03/26 02:39:25;;;;;;;55.03;5.17;;;;;;;4.82;100.00;100440.09;4916210;29;20032;-89
2023/03/26 02:41:52;;;;;;;47.60;3.92;;;;;;;4.82;100.00;100438.28;4915713;29;20051;-89
2023/03/26 02:44:18;;;;;;;34.72;3.75;;;;;;;4.79;100.00;100432.59;4915875;29;20500;-89
2023/03/26 02:46:44;;;;;;;42.67;5.45;;;;;;;4.82;100.00;100432.13;4915719;29;20415;-89
2023/03/26 02:49:09;;;;;;;42.97;4.77;;;;;;;4.88;100.00;100428.56;4915430;29;20536;-88
2023/03/26 02:51:36;;;;;;;49.60;4.87;;;;;;;4.92;100.00;100421.78;4916020;29;20032;-89
2023/03/26 02:54:01;;;;;;;38.13;3.88;;;;;;;4.95;100.00;100420.50;4918950;29;20032;-89
2023/03/26 02:56:27;;;;;;;44.42;4.38;;;;;;;5.00;100.00;100402.84;4920459;29;20067;-89
2023/03/26 02:58:53;;;;;;;32.27;3.47;;;;;;;5.03;100.00;100406.06;4929658;29;20053;-89
2023/03/26 03:01:18;;;;;;;47.70;4.30;;;;;;;5.02;100.00;100394.66;4930285;29;20036;-89
2023/03/26 03:03:46;;;;;;;46.97;4.53;;;;;;;5.10;100.00;100401.47;4929617;29;20082;-89
2023/03/26 03:06:11;;;;;;;37.93;3.30;;;;;;;5.15;100.00;100409.53;4933823;29;20056;-88
2023/03/26 03:08:36;;;;;;;40.63;3.80;;;;;;;5.14;100.00;100394.63;4925422;29;20311;-89
2023/03/26 03:11:15;;;;;;;39.60;3.80;;;;;;;5.18;100.00;100381.72;4920298;29;20532;-89
2023/03/26 03:13:41;;;;;;;47.20;3.75;;;;;;;5.20;100.00;100393.69;4902565;29;20028;-89
2023/03/26 03:16:07;;;;;;;45.00;3.57;;;;;;;5.23;100.00;100381.78;4919224;29;20032;-90
2023/03/26 03:18:33;;;;;;;54.53;3.83;;;;;;;5.19;100.00;100376.16;4919277;29;20028;-89
2023/03/26 03:20:58;;;;;;;32.97;3.60;;;;;;;5.17;100.00;100362.28;4920035;29;20468;-89
2023/03/26 03:23:23;;;;;;;43.83;4.50;;;;;;;5.25;100.00;100372.56;4919499;29;20036;-89
2023/03/26 03:25:51;;;;;;;34.38;5.43;;;;;;;5.27;100.00;100369.66;4919244;29;20066;-89
2023/03/26 03:28:17;;;;;;;29.30;4.77;;;;;;;5.22;100.00;100354.44;4918598;29;20017;-89
2023/03/26 03:30:43;;;;;;;36.78;4.80;;;;;;;5.30;100.00;100362.03;4918370;29;20032;-89
2023/03/26 03:33:08;;;;;;;39.78;6.00;;;;;;;5.35;100.00;100356.03;4919055;29;20034;-89
2023/03/26 03:35:34;;;;;;;38.50;6.67;;;;;;;5.30;100.00;100339.97;4918245;29;20297;-89
2023/03/26 03:38:00;;;;;;;35.38;6.15;;;;;;;5.40;100.00;100357.97;4919331;29;20380;-89
2023/03/26 03:40:25;;;;;;;43.17;6.80;;;;;;;5.42;100.00;100361.22;4917495;29;20051;-89
2023/03/26 03:42:51;;;;;;;44.42;6.05;;;;;;;5.45;100.00;100355.44;4901452;29;20029;-89
2023/03/26 03:45:16;;;;;;;38.80;6.10;;;;;;;5.48;100.00;100348.84;4919215;29;20020;-89
2023/03/26 03:47:42;;;;;;;36.00;4.70;;;;;;;5.52;100.00;100355.31;4918586;29;20021;-89
2023/03/26 03:50:08;;;;;;;40.45;4.55;;;;;;;5.51;100.00;100337.75;4917941;29;20036;-89
2023/03/26 03:52:35;;;;;;;41.30;4.67;;;;;;;5.58;100.00;100344.53;4918160;29;20091;-89
2023/03/26 03:55:00;;;;;;;36.08;3.65;;;;;;;5.58;100.00;100343.72;4901803;29;20040;-88
2023/03/26 03:57:26;;;;;;;31.77;2.83;;;;;;;5.65;100.00;100348.91;4918861;29;20031;-89
2023/03/26 03:59:52;;;;;;;31.48;3.10;;;;;;;5.62;100.00;100331.56;4918190;29;20023;-89
2023/03/26 04:02:25;;;;;;;30.25;3.15;;;;;;;5.69;100.00;100337.56;4918618;29;20043;-89
2023/03/26 04:04:56;;;;;;;27.30;2.97;;;;;;;5.72;100.00;100333.59;4918121;29;20118;-89
2023/03/26 04:07:23;;;;;;;30.25;3.38;;;;;;;5.73;100.00;100324.59;4917998;29;20115;-88
2023/03/26 04:09:49;;;;;;;29.15;3.13;;;;;;;5.74;100.00;100331.53;4917594;29;20536;-89
2023/03/26 04:12:14;;;;;;;36.47;2.73;;;;;;;5.74;100.00;100323.56;4918160;29;20036;-89
2023/03/26 04:14:40;;;;;;;34.92;3.78;;;;;;;5.77;100.00;100323.06;4918091;29;20032;-89
2023/03/26 04:17:05;;;;;;;35.97;3.87;;;;;;;5.70;100.00;100309.09;4918099;29;20119;-89
2023/03/26 04:19:30;;;;;;;26.90;2.97;;;;;;;5.78;100.00;100306.09;4917781;29;20068;-88
2023/03/26 04:22:01;;;;;;;34.37;3.30;;;;;;;5.76;100.00;100300.19;4932154;29;20028;-89
2023/03/26 04:24:27;;;;;;;28.45;3.30;;;;;;;5.78;100.00;100295.44;4919300;29;20107;-88
2023/03/26 04:26:57;;;;;;;26.73;3.28;;;;;;;5.74;100.00;100283.66;4921462;29;20040;-89
2023/03/26 04:29:26;;;;;;;28.20;3.08;;;;;;;5.74;100.00;100281.00;4940737;29;20021;-88
2023/03/26 04:31:57;;;;;;;22.20;2.42;;;;;;;5.76;100.00;100278.94;4923878;29;20079;-89
2023/03/26 04:34:24;;;;;;;29.83;3.47;;;;;;;5.75;100.00;100269.34;4918411;29;20039;-89
2023/03/26 04:36:53;;;;;;;29.10;3.10;;;;;;;5.76;100.00;100266.44;4917810;29;20032;-89
2023/03/26 04:39:20;;;;;;;28.38;3.10;;;;;;;5.79;100.00;100269.66;4917843;29;20020;-89
2023/03/26 04:41:47;;;;;;;23.13;3.10;;;;;;;5.74;100.00;100257.91;4917919;29;20032;-89
2023/03/26 04:44:15;;;;;;;29.17;2.78;;;;;;;5.78;100.00;100258.22;4918115;29;20032;-89
2023/03/26 04:46:42;;;;;;;24.15;3.55;;;;;;;5.76;100.00;100260.31;4917905;29;20036;-89
2023/03/26 04:49:08;;;;;;;36.40;5.30;;;;;;;5.75;100.00;100251.50;4917441;29;20383;-89
2023/03/26 04:51:40;;;;;;;33.93;5.90;;;;;;;5.70;100.00;100240.00;4918072;29;20021;-88
2023/03/26 04:54:11;;;;;;;27.90;5.00;;;;;;;5.69;100.00;100246.34;4900520;29;20434;-89
2023/03/26 04:56:39;;;;;;;24.30;4.20;;;;;;;5.67;100.00;100246.59;4900425;29;20115;-88
2023/03/26 04:59:06;;;;;;;23.88;4.43;;;;;;;5.60;100.00;100232.66;4917382;29;20071;-89
2023/03/26 05:01:36;;;;;;;26.95;4.18;;;;;;;5.48;100.00;100215.97;4916626;29;20500;-88
2023/03/26 05:04:02;;;;;;;27.90;5.13;;;;;;;5.53;100.00;100227.47;4917223;29;20038;-89
2023/03/26 05:06:29;;;;;;;22.20;4.23;;;;;;;5.48;100.00;100215.97;4918254;29;20107;-89
2023/03/26 05:08:54;;;;;;;27.58;4.15;;;;;;;5.49;100.00;100222.88;4917983;29;20381;-88
2023/03/26 05:11:20;;;;;;;22.77;3.00;;;;;;;5.48;100.00;100219.41;4918718;29;20043;-89
2023/03/26 05:13:45;;;;;;;19.13;2.78;;;;;;;5.44;100.00;100208.47;4925503;29;20358;-89
2023/03/26 05:16:11;;;;;;;28.93;3.40;;;;;;;5.48;100.00;100208.78;4935023;29;20035;-88
2023/03/26 05:18:37;;;;;;;33.15;3.00;;;;;;;5.56;100.00;100216.38;4931800;29;20036;-88
2023/03/26 05:21:04;;;;;;;30.35;2.80;;;;;;;5.51;100.00;100192.34;4938161;29;20055;-88
2023/03/26 05:23:29;;;;;;;34.60;2.97;;;;;;;5.59;100.00;100201.78;4923850;29;20035;-89
2023/03/26 05:25:55;;;;;;;24.83;2.17;;;;;;;5.61;100.00;100205.84;4919383;29;20284;-89
2023/03/26 05:28:24;;;;;;;24.60;3.33;;;;;;;5.55;100.00;100182.06;4917596;29;20028;-89
2023/03/26 05:30:51;;;;;;;32.10;3.15;;;;;;;5.64;100.00;100179.84;4917041;29;20028;-89
2023/03/26 05:33:18;;;;;;;29.13;3.15;;;;;;;5.68;100.00;100188.91;4917340;29;20032;-88
2023/03/26 05:35:43;;;;;;;15.32;2.78;;;;;;;5.69;100.00;100182.56;4917302;29;20020;-89
2023/03/26 05:38:09;;;;;;;29.23;3.53;;;;;;;5.68;100.00;100173.78;4917619;29;20611;-88
2023/03/26 05:40:35;;;;;;;21.87;2.43;;;;;;;5.70;100.00;100171.69;4917206;29;20272;-89
2023/03/26 05:43:00;;;;;;;29.37;3.50;;;;;;;5.73;100.00;100162.41;4917401;29;20028;-89
2023/03/26 05:45:25;;;;;;;30.67;3.53;;;;;;;5.74;100.00;100172.00;4916775;29;20027;-89
2023/03/26 05:47:53;;;;;;;29.87;3.07;;;;;;;5.73;100.00;100159.75;4925666;28;20024;-88
2023/03/26 05:50:18;;;;;;;25.53;2.60;;;;;;;5.78;100.00;100172.31;4925444;29;20467;-89
2023/03/26 05:52:43;;;;;;;28.37;2.90;;;;;;;5.78;100.00;100162.50;4901060;29;20399;-89
2023/03/26 05:55:09;;;;;;;20.60;3.10;;;;;;;5.79;100.00;100160.66;4931359;29;20024;-88
2023/03/26 05:57:34;;;;;;;26.37;2.93;;;;;;;5.80;100.00;100154.28;4921382;29;20080;-88
2023/03/26 06:00:01;;;;;;;22.77;2.73;;;;;;;5.80;100.00;100160.41;4914501;29;20032;-89
2023/03/26 06:02:28;;;;;;;20.63;3.27;;;;;;;5.78;100.00;100151.06;4916516;29;20288;-89
2023/03/26 06:04:55;;;;;;;21.80;2.78;;;;;;;5.82;100.00;100152.19;4916630;29;20028;-89
2023/03/26 06:07:21;;;;;;;32.92;3.38;;;;;;;5.80;100.00;100144.47;4916702;29;20028;-88
2023/03/26 06:09:46;;;;;;;33.28;3.42;;;;;;;5.80;100.00;100147.13;4916573;29;20052;-89
2023/03/26 06:12:12;;;;;;;29.30;3.33;;;;;;;5.75;100.00;100133.75;4916896;29;20451;-89
2023/03/26 06:14:37;;;;;;;19.47;2.30;;;;;;;5.83;100.00;100135.19;4916366;29;20445;-89
2023/03/26 06:17:04;;;;;;;27.83;2.73;;;;;;;5.79;100.00;100132.22;4917216;29;20028;-89
2023/03/26 06:19:29;;;;;;;22.42;2.60;;;;;;;5.80;100.00;100133.00;4916255;29;20028;-89
2023/03/26 06:21:55;;;;;;;30.15;2.92;;;;;;;5.80;100.00;100125.03;4916168;29;20035;-89
2023/03/26 06:24:20;;;;;;;23.30;2.63;;;;;;;5.86;100.00;100121.41;4916158;29;20124;-89
2023/03/26 06:26:46;;;;;;;30.43;3.10;;;;;;;5.84;100.00;100116.31;4899149;29;20076;-89
2023/03/26 06:29:13;;;;;;;24.88;2.40;;;;;;;5.89;100.00;100121.72;4916557;29;20035;-89
2023/03/26 06:31:39;;;;;;;25.30;3.13;;;;;;;5.92;100.00;100125.78;4916296;29;20092;-89
2023/03/26 06:34:05;;;;;;;23.42;2.80;;;;;;;5.94;100.00;100114.88;4899995;29;20039;-89
2023/03/26 06:36:30;;;;;;;25.57;2.60;;;;;;;5.86;100.00;100106.25;4917164;29;20032;-89
2023/03/26 06:38:56;;;;;;;23.47;2.90;;;;;;;5.94;100.00;100120.19;4916141;29;20036;-89
2023/03/26 06:41:21;;;;;;;19.07;3.10;;;;;;;5.99;100.00;100122.94;4916311;29;20129;-89
2023/03/26 06:43:46;;;;;;;25.07;2.93;;;;;;;5.94;100.00;100115.66;4916079;29;20440;-89
2023/03/26 06:46:13;;;;;;;27.67;3.42;;;;;;;5.98;100.00;100121.31;4916619;29;20028;-88
2023/03/26 06:48:40;;;;;;;24.53;2.70;;;;;;;5.98;100.00;100123.97;4915509;29;20036;-88
2023/03/26 06:51:06;;;;;;;27.83;3.40;;;;;;;6.01;100.00;100131.50;4916884;29;20036;-88
2023/03/26 06:53:32;;;;;;;21.88;3.17;;;;;;;5.99;100.00;100125.59;4916832;29;20032;-88
2023/03/26 06:55:57;;;;;;;23.17;4.00;;;;;;;6.02;100.00;100120.63;4916037;29;20039;-88
2023/03/26 06:58:22;;;;;;;35.30;4.60;;;;;;;6.03;100.00;100132.03;4915974;29;20079;-88
2023/03/26 07:00:52;;;;;;;30.67;4.70;;;;;;;5.99;100.00;100125.59;4915955;29;20115;-88
2023/03/26 07:03:17;;;;;;;24.63;3.88;;;;;;;6.07;100.00;100125.19;4916581;29;20373;-88
2023/03/26 07:05:43;;;;;;;24.70;3.50;;;;;;;6.04;100.00;100121.19;4916245;29;20039;-88
2023/03/26 07:08:10;;;;;;;27.75;4.20;;;;;;;6.01;100.00;100119.00;4916219;29;20060;-88
2023/03/26 07:10:35;;;;;;;26.33;3.75;;;;;;;6.01;100.00;100119.00;4918142;29;20068;-88
2023/03/26 07:13:01;;;;;;;30.80;4.05;;;;;;;6.05;100.00;100114.81;4932100;28;20036;-87
2023/03/26 07:15:27;;;;;;;31.17;4.30;;;;;;;6.01;100.00;100104.91;4920189;29;20119;-88
2023/03/26 07:17:53;;;;;;;30.23;5.22;;;;;;;5.97;100.00;100095.78;4916650;29;20024;-88
2023/03/26 07:20:18;;;;;;;19.27;4.53;;;;;;;6.06;100.00;100111.09;4933046;29;20032;-87
2023/03/26 07:22:45;;;;;;;23.63;3.90;;;;;;;6.08;100.00;100108.19;4901955;29;20405;-88
2023/03/26 07:25:12;;;;;;;18.83;3.03;;;;;;;6.06;100.00;100099.63;4915644;29;20040;-87
2023/03/26 07:27:52;;;;;;;27.23;3.90;;;;;;;6.08;100.00;100097.53;4915318;29;20032;-88
2023/03/26 07:30:41;;;;;;;24.38;3.80;;;;;;;6.14;100.00;100095.75;4898363;29;20036;-88
2023/03/26 07:33:21;;;;;;;25.77;3.43;;;;;;;6.13;100.00;100089.63;4915603;29;20024;-88
2023/03/26 07:36:02;;;;;;;24.50;3.97;;;;;;;6.13;100.00;100084.31;4899254;29;20694;-87
2023/03/26 07:38:54;;;;;;;18.50;3.65;;;;;;;6.20;100.00;100094.78;4915589;29;20074;-88
2023/03/26 07:41:45;;;;;;;23.75;3.47;;;;;;;6.24;100.00;100087.09;4918978;29;20100;-88
2023/03/26 07:44:26;;;;;;;21.42;3.55;;;;;;;6.26;100.00;100087.66;4918094;29;20036;-88
2023/03/26 07:46:52;;;;;;;23.77;4.47;;;;;;;6.19;100.00;100078.03;4919436;29;20052;-88
2023/03/26 07:49:20;;;;;;;25.73;3.97;;;;;;;6.30;100.00;100094.91;4918486;29;20024;-88
2023/03/26 07:51:46;;;;;;;19.60;3.85;;;;;;;6.29;100.00;100087.16;4901942;29;20038;-88
2023/03/26 07:54:12;;;;;;;24.87;3.80;;;;;;;6.22;100.00;100072.19;4918779;29;20060;-87
2023/03/26 07:56:55;;;;;;;23.45;4.07;;;;;;;6.36;100.00;100083.28;4918085;29;20496;-88
2023/03/26 07:59:38;;;;;;;27.45;4.32;;;;;;;6.40;100.00;100088.91;4918085;29;20032;-88
2023/03/26 08:02:07;;;;;;;21.73;3.55;;;;;;;6.45;100.00;100085.50;4919552;29;20060;-88
2023/03/26 08:05:01;;;;;;;27.37;4.37;;;;;;;6.50;100.00;100074.91;4927321;29;20042;-88
2023/03/26 08:07:47;;;;;;;18.75;3.80;;;;;;;6.53;100.00;100084.28;4899088;29;20021;-87
2023/03/26 08:10:38;;;;;;;23.10;4.22;;;;;;;6.58;100.00;100077.13;4939774;29;20043;-88
2023/03/26 08:13:15;;;;;;;19.02;4.10;;;;;;;6.69;100.00;100080.72;4934315;29;20028;-87
2023/03/26 08:15:52;;;;;;;20.70;4.18;;;;;;;6.75;100.00;100074.41;4932026;29;20040;-88
2023/03/26 08:18:31;;;;;;;18.50;3.80;;;;;;;6.79;100.00;100080.81;4923326;29;20028;-88
2023/03/26 08:21:09;;;;;;;30.50;4.20;;;;;;;6.86;100.00;100069.16;4924616;29;20084;-88
2023/03/26 08:23:53;;;;;;;16.40;3.73;;;;;;;6.86;100.00;100067.28;4920474;29;21023;-88
2023/03/26 08:26:34;;;;;;;18.73;3.58;;;;;;;6.97;100.00;100081.53;4920677;29;20038;-88
2023/03/26 08:29:13;;;;;;;19.35;4.28;;;;;;;6.95;100.00;100070.31;4919570;29;20024;-89
2023/03/26 08:31:42;;;;;;;21.83;4.10;;;;;;;6.96;100.00;100070.06;4936160;29;20016;-88
2023/03/26 08:34:10;;;;;;;15.93;3.45;;;;;;;6.90;100.00;100059.63;4937915;29;20044;-86
2023/03/26 08:36:36;;;;;;;22.67;3.60;;;;;;;7.05;100.00;100073.09;4940262;29;20038;-87
2023/03/26 08:39:02;;;;;;;20.43;3.70;;;;;;;7.00;100.00;100057.03;4940750;28;20016;-87
2023/03/26 08:42:03;;;;;;;17.38;3.92;;;;;;;7.15;100.00;100068.88;4924874;29;20028;-88
2023/03/26 08:44:47;;;;;;;20.88;3.60;;;;;;;7.20;100.00;100075.09;4918463;29;20551;-87
2023/03/26 08:47:26;;;;;;;16.83;3.72;;;;;;;7.22;100.00;100067.63;4927105;29;20063;-87
2023/03/26 08:50:25;;;;;;;15.80;3.30;;;;;;;7.24;100.00;100068.19;4916782;29;20046;-87
2023/03/26 08:53:19;;;;;;;18.43;3.30;;;;;;;7.25;100.00;100069.00;4918291;29;20839;-86
2023/03/26 08:55:55;;;;;;;19.90;3.35;;;;;;;7.30;100.00;100063.72;4898941;29;20075;-87
2023/03/26 08:59:15;;;;;;;18.77;3.42;;;;;;;7.39;100.00;100066.72;4918206;29;20560;-87
2023/03/26 09:01:49;;;;;;;17.02;2.90;;;;;;;7.46;100.00;100058.50;4877920;29;20112;-87
2023/03/26 09:04:43;;;;;;;21.55;3.50;;;;;;;7.48;100.00;100059.06;4917287;29;20044;-87
2023/03/26 09:07:38;;;;;;;22.17;3.10;;;;;;;7.49;100.00;100056.13;4901606;29;20024;-87
2023/03/26 09:10:22;;;;;;;16.25;3.13;;;;;;;7.52;100.00;100062.78;4927788;29;20035;-87
2023/03/26 09:13:21;;;;;;;18.07;3.73;;;;;;;7.51;100.00;100053.19;4939872;29;20068;-87
2023/03/26 09:16:37;;;;;;;20.27;2.80;;;;;;;7.54;100.00;100060.66;4939982;28;20283;-85
2023/03/26 09:19:14;;;;;;;15.13;2.85;;;;;;;7.61;100.00;100068.44;4901056;29;20048;-88
2023/03/26 09:22:14;;;;;;;19.88;3.03;;;;;;;7.47;100.00;100046.78;4922622;29;20060;-87
2023/03/26 09:24:57;;;;;;;12.93;2.65;;;;;;;7.41;100.00;100060.06;4928093;29;20051;-88
2023/03/26 09:27:37;;;;;;;15.00;2.95;;;;;;;7.32;100.00;100058.91;4920891;29;20036;-89
2023/03/26 09:30:32;;;;;;;10.85;2.28;;;;;;;7.33;100.00;100057.06;4916789;29;20044;-88
2023/03/26 09:33:31;;;;;;;13.13;2.40;;;;;;;7.18;100.00;100042.56;4916645;29;20071;-87
2023/03/26 09:36:33;;;;;;;11.57;1.55;;;;;;;7.17;100.00;100050.78;4917352;29;20099;-89
2023/03/26 09:39:08;;;;;;;10.65;1.77;;;;;;;6.97;100.00;100038.91;4915975;29;20032;-89
2023/03/26 09:42:15;;;;;;;14.35;2.58;;;;;;;6.92;100.00;100039.66;4916248;29;20028;-88
2023/03/26 09:45:09;;;;;;;12.35;2.85;;;;;;;6.97;100.00;100044.22;4915673;29;20067;-87
2023/03/26 09:48:05;;;;;;;17.02;3.55;;;;;;;7.06;100.00;100049.91;4899737;29;20033;-88
2023/03/26 09:50:36;;;;;;;18.15;3.55;;;;;;;7.08;100.00;100047.78;4915727;29;20071;-87
2023/03/26 09:53:25;;;;;;;12.00;3.77;;;;;;;7.06;100.00;100040.06;4917371;29;20036;-88
2023/03/26 09:56:07;;;;;;;13.97;3.30;;;;;;;7.21;100.00;100049.25;4916975;29;20284;-87
2023/03/26 09:58:57;;;;;;;12.18;3.28;;;;;;;7.42;100.00;100047.53;4915893;29;20554;-87
2023/03/26 10:01:42;;;;;;;18.27;3.50;;;;;;;7.76;100.00;100057.09;4917609;29;20058;-87
2023/03/26 10:04:31;;;;;;;15.05;3.60;;;;;;;7.91;100.00;100049.16;4922568;29;20431;-86
2023/03/26 10:07:29;;;;;;;11.88;3.50;;;;;;;7.94;100.00;100056.66;4916755;29;20471;-87
2023/03/26 10:10:12;;;;;;;12.15;3.78;;;;;;;7.90;100.00;100044.88;4921725;29;20044;-86
2023/03/26 10:12:44;;;;;;;11.82;3.55;;;;;;;8.18;100.00;100059.69;4915565;29;20038;-87
2023/03/26 10:15:15;;;;;;;8.50;3.80;;;;;;;8.28;100.00;100053.59;4914827;29;20408;-87
2023/03/26 10:18:08;;;;;;;16.43;4.37;;;;;;;8.49;100.00;100070.50;4915928;29;20320;-87
2023/03/26 10:20:52;;;;;;;15.95;4.35;;;;;;;8.45;100.00;100060.59;4916144;29;20039;-89
2023/03/26 10:23:40;;;;;;;11.82;3.30;;;;;;;8.40;100.00;100063.28;4918985;29;20036;-88
2023/03/26 10:26:19;;;;;;;11.00;3.30;;;;;;;8.33;100.00;100061.63;4917096;29;20032;-88
2023/03/26 10:28:54;;;;;;;12.98;2.60;;;;;;;8.16;100.00;100064.50;4914707;29;20485;-88
2023/03/26 10:31:40;;;;;;;10.35;2.13;;;;;;;8.06;100.00;100059.13;4916051;29;20038;-88
2023/03/26 10:34:28;;;;;;;8.00;2.30;;;;;;;8.19;100.00;100068.53;4915408;29;20028;-89
2023/03/26 10:37:05;;;;;;;8.17;2.73;;;;;;;8.32;100.00;100070.72;4915753;29;20047;-88
2023/03/26 10:39:49;;;;;;;10.33;2.70;;;;;;;8.41;100.00;100076.34;4915037;29;20276;-88
2023/03/26 10:42:27;;;;;;;5.38;1.90;;;;;;;8.23;100.00;100064.25;4918003;29;20028;-88
2023/03/26 10:45:25;;;;;;;7.00;1.88;;;;;;;8.08;100.00;100067.66;4915636;29;20077;-88
2023/03/26 10:48:21;;;;;;;7.05;1.95;;;;;;;7.93;100.00;100064.94;4915435;29;20083;-88
2023/03/26 10:51:03;;;;;;;6.53;1.75;;;;;;;8.08;100.00;100074.84;4916462;29;20043;-87
2023/03/26 10:53:40;;;;;;;8.65;2.72;;;;;;;8.08;100.00;100075.69;4917291;29;20035;-88
2023/03/26 10:56:12;;;;;;;7.85;1.90;;;;;;;7.94;100.00;100074.53;4916559;29;20395;-89
2023/03/26 10:58:39;;;;;;;4.77;1.33;;;;;;;7.86;100.00;100065.94;4916045;29;20496;-88
2023/03/26 11:01:12;;;;;;;5.43;1.70;;;;;;;7.91;100.00;100067.84;4919740;29;20855;-88
2023/03/26 11:03:53;;;;;;;9.52;1.98;;;;;;;8.03;100.00;100081.75;4920102;29;20032;-89
2023/03/26 11:06:37;;;;;;;7.50;1.77;;;;;;;8.11;100.00;100082.34;4916977;29;20024;-89
2023/03/26 11:09:23;;;;;;;5.38;1.35;;;;;;;8.12;100.00;100086.63;4923738;29;20400;-88
2023/03/26 11:12:24;;;;;;;6.35;1.50;;;;;;;8.12;100.00;100083.97;4926190;29;20032;-89
2023/03/26 11:14:59;;;;;;;6.10;1.60;;;;;;;8.24;100.00;100086.41;4937588;29;20107;-89
2023/03/26 11:17:56;;;;;;;7.82;1.50;;;;;;;8.28;100.00;100080.28;4933371;29;20034;-89
2023/03/26 11:20:43;;;;;;;5.80;1.38;;;;;;;8.48;100.00;100100.16;4926385;29;20059;-89
2023/03/26 11:24:00;;;;;;;3.58;1.38;;;;;;;8.77;100.00;100089.84;4929898;29;20042;-89
2023/03/26 11:26:42;;;;;;;6.87;1.53;;;;;;;8.70;100.00;100088.50;4932205;29;20044;-86
2023/03/26 11:29:38;;;;;;;8.15;1.45;;;;;;;8.77;100.00;100099.72;4924024;29;20432;-87
2023/03/26 11:32:09;;;;;;;5.25;1.77;;;;;;;8.82;100.00;100101.59;4926543;29;20059;-88
2023/03/26 11:34:41;;;;;;;6.95;2.10;;;;;;;8.80;100.00;100107.19;4927566;29;20031;-87
2023/03/26 11:37:16;;;;;;;5.57;1.70;;;;;;;8.85;100.00;100093.06;4922573;29;20555;-89
2023/03/26 11:39:50;;;;;;;6.60;1.65;;;;;;;8.94;100.00;100100.31;4921169;29;20024;-89
2023/03/26 11:42:20;;;;;;;4.95;1.85;;;;;;;9.02;100.00;100111.53;4918747;29;20114;-89
2023/03/26 11:44:58;;;;;;;10.67;1.90;;;;;;;8.97;100.00;100109.66;4918600;29;20036;-89